sensor_id;sensor_type;location;lat;lon;timestamp;temperature;humidity
77727;SHT30;68312;53.502;10.030;2023-05-19T00:02:09;6.80;78.90
77727;SHT30;68312;53.502;10.030;2023-05-19T00:04:35;6.88;78.70
77727;SHT30;68312;53.502;10.030;2023-05-19T00:07:02;6.88;78.59
77727;SHT30;68312;53.502;10.030;2023-05-19T00:09:28;6.94;78.70
77727;SHT30;68312;53.502;10.030;2023-05-19T00:11:54;6.95;78.69
77727;SHT30;68312;53.502;10.030;2023-05-19T00:14:20;6.96;78.70
77727;SHT30;68312;53.502;10.030;2023-05-19T00:16:45;6.96;78.74
77727;SHT30;68312;53.502;10.030;2023-05-19T00:19:11;6.92;78.58
77727;SHT30;68312;53.502;10.030;2023-05-19T00:21:37;6.87;78.93
77727;SHT30;68312;53.502;10.030;2023-05-19T00:24:03;6.81;78.99
77727;SHT30;68312;53.502;10.030;2023-05-19T00:26:28;6.77;78.97
77727;SHT30;68312;53.502;10.030;2023-05-19T00:28:54;6.78;78.61
77727;SHT30;68312;53.502;10.030;2023-05-19T00:31:19;6.75;78.68
77727;SHT30;68312;53.502;10.030;2023-05-19T00:33:45;6.73;78.81
77727;SHT30;68312;53.502;10.030;2023-05-19T00:36:11;6.71;78.70
77727;SHT30;68312;53.502;10.030;2023-05-19T00:38:37;6.71;78.93
77727;SHT30;68312;53.502;10.030;2023-05-19T00:41:04;6.74;79.06
77727;SHT30;68312;53.502;10.030;2023-05-19T00:43:31;6.77;79.43
77727;SHT30;68312;53.502;10.030;2023-05-19T00:45:57;6.77;79.83
77727;SHT30;68312;53.502;10.030;2023-05-19T00:48:24;6.73;79.86
77727;SHT30;68312;53.502;10.030;2023-05-19T00:50:52;6.68;80.06
77727;SHT30;68312;53.502;10.030;2023-05-19T00:53:20;6.61;80.13
77727;SHT30;68312;53.502;10.030;2023-05-19T00:55:48;6.57;80.17
77727;SHT30;68312;53.502;10.030;2023-05-19T00:58:15;6.56;80.10
77727;SHT30;68312;53.502;10.030;2023-05-19T01:00:42;6.50;80.66
77727;SHT30;68312;53.502;10.030;2023-05-19T01:03:09;6.48;81.20
77727;SHT30;68312;53.502;10.030;2023-05-19T01:05:42;6.47;81.24
77727;SHT30;68312;53.502;10.030;2023-05-19T01:08:07;6.41;81.31
77727;SHT30;68312;53.502;10.030;2023-05-19T01:10:33;6.44;81.82
77727;SHT30;68312;53.502;10.030;2023-05-19T01:13:00;6.44;82.01
77727;SHT30;68312;53.502;10.030;2023-05-19T01:15:27;6.47;81.84
77727;SHT30;68312;53.502;10.030;2023-05-19T01:18:13;6.48;81.32
77727;SHT30;68312;53.502;10.030;2023-05-19T01:20:57;6.47;81.65
77727;SHT30;68312;53.502;10.030;2023-05-19T01:24:41;6.46;81.57
77727;SHT30;68312;53.502;10.030;2023-05-19T01:30:32;6.46;81.66
77727;SHT30;68312;53.502;10.030;2023-05-19T01:33:06;6.47;81.75
77727;SHT30;68312;53.502;10.030;2023-05-19T01:35:36;6.47;81.21
77727;SHT30;68312;53.502;10.030;2023-05-19T01:38:07;6.50;81.31
77727;SHT30;68312;53.502;10.030;2023-05-19T01:40:38;6.61;80.49
77727;SHT30;68312;53.502;10.030;2023-05-19T01:43:08;6.65;80.16
77727;SHT30;68312;53.502;10.030;2023-05-19T01:45:37;6.63;80.03
77727;SHT30;68312;53.502;10.030;2023-05-19T01:48:03;6.61;80.50
77727;SHT30;68312;53.502;10.030;2023-05-19T01:50:30;6.63;80.28
77727;SHT30;68312;53.502;10.030;2023-05-19T01:52:57;6.63;80.38
77727;SHT30;68312;53.502;10.030;2023-05-19T01:55:23;6.67;80.31
77727;SHT30;68312;53.502;10.030;2023-05-19T02:01:03;6.67;80.06
77727;SHT30;68312;53.502;10.030;2023-05-19T02:07:01;6.63;80.69
77727;SHT30;68312;53.502;10.030;2023-05-19T02:09:37;6.67;80.54
77727;SHT30;68312;53.502;10.030;2023-05-19T02:12:34;6.75;80.55
77727;SHT30;68312;53.502;10.030;2023-05-19T02:15:13;6.70;80.41
77727;SHT30;68312;53.502;10.030;2023-05-19T02:17:44;6.71;80.92
77727;SHT30;68312;53.502;10.030;2023-05-19T02:20:11;6.74;80.91
77727;SHT30;68312;53.502;10.030;2023-05-19T02:22:37;6.77;80.74
77727;SHT30;68312;53.502;10.030;2023-05-19T02:25:02;6.81;80.58
77727;SHT30;68312;53.502;10.030;2023-05-19T02:27:28;6.83;80.82
77727;SHT30;68312;53.502;10.030;2023-05-19T02:29:54;6.81;80.70
77727;SHT30;68312;53.502;10.030;2023-05-19T02:32:20;6.81;81.20
77727;SHT30;68312;53.502;10.030;2023-05-19T02:34:45;6.84;81.35
77727;SHT30;68312;53.502;10.030;2023-05-19T02:37:13;6.89;80.98
77727;SHT30;68312;53.502;10.030;2023-05-19T02:39:43;6.87;80.95
77727;SHT30;68312;53.502;10.030;2023-05-19T02:42:09;6.83;81.01
77727;SHT30;68312;53.502;10.030;2023-05-19T02:44:35;6.83;81.15
77727;SHT30;68312;53.502;10.030;2023-05-19T02:47:00;6.83;81.50
77727;SHT30;68312;53.502;10.030;2023-05-19T02:49:26;6.85;81.44
77727;SHT30;68312;53.502;10.030;2023-05-19T02:51:52;6.89;81.52
77727;SHT30;68312;53.502;10.030;2023-05-19T02:54:17;6.95;81.43
77727;SHT30;68312;53.502;10.030;2023-05-19T02:56:43;6.98;81.43
77727;SHT30;68312;53.502;10.030;2023-05-19T02:59:08;6.96;81.26
77727;SHT30;68312;53.502;10.030;2023-05-19T03:01:34;6.99;81.39
77727;SHT30;68312;53.502;10.030;2023-05-19T03:03:59;7.02;81.30
77727;SHT30;68312;53.502;10.030;2023-05-19T03:06:25;7.04;81.69
77727;SHT30;68312;53.502;10.030;2023-05-19T03:08:50;7.04;81.68
77727;SHT30;68312;53.502;10.030;2023-05-19T03:11:16;7.04;81.69
77727;SHT30;68312;53.502;10.030;2023-05-19T03:13:41;7.05;81.65
77727;SHT30;68312;53.502;10.030;2023-05-19T03:16:07;7.01;81.81
77727;SHT30;68312;53.502;10.030;2023-05-19T03:18:33;6.98;82.35
77727;SHT30;68312;53.502;10.030;2023-05-19T03:20:59;6.99;82.18
77727;SHT30;68312;53.502;10.030;2023-05-19T03:23:25;6.99;82.17
77727;SHT30;68312;53.502;10.030;2023-05-19T03:25:51;7.01;82.28
77727;SHT30;68312;53.502;10.030;2023-05-19T03:28:16;7.02;82.31
77727;SHT30;68312;53.502;10.030;2023-05-19T03:30:41;7.01;82.21
77727;SHT30;68312;53.502;10.030;2023-05-19T03:33:07;6.96;82.37
77727;SHT30;68312;53.502;10.030;2023-05-19T03:35:32;6.95;82.63
77727;SHT30;68312;53.502;10.030;2023-05-19T03:37:58;6.95;82.84
77727;SHT30;68312;53.502;10.030;2023-05-19T03:40:23;6.95;82.67
77727;SHT30;68312;53.502;10.030;2023-05-19T03:42:49;6.99;82.78
77727;SHT30;68312;53.502;10.030;2023-05-19T03:45:14;7.04;82.78
77727;SHT30;68312;53.502;10.030;2023-05-19T03:47:40;7.12;82.69
77727;SHT30;68312;53.502;10.030;2023-05-19T03:50:06;7.19;82.45
77727;SHT30;68312;53.502;10.030;2023-05-19T03:52:31;7.26;82.25
77727;SHT30;68312;53.502;10.030;2023-05-19T03:54:57;7.27;82.36
77727;SHT30;68312;53.502;10.030;2023-05-19T03:57:22;7.32;82.35
77727;SHT30;68312;53.502;10.030;2023-05-19T03:59:48;7.35;82.42
77727;SHT30;68312;53.502;10.030;2023-05-19T04:02:14;7.43;81.94
77727;SHT30;68312;53.502;10.030;2023-05-19T04:04:39;7.49;81.82
77727;SHT30;68312;53.502;10.030;2023-05-19T04:07:05;7.53;81.69
77727;SHT30;68312;53.502;10.030;2023-05-19T04:09:30;7.60;81.53
77727;SHT30;68312;53.502;10.030;2023-05-19T04:11:56;7.64;81.26
77727;SHT30;68312;53.502;10.030;2023-05-19T04:14:21;7.67;81.29
77727;SHT30;68312;53.502;10.030;2023-05-19T04:16:47;7.71;81.36
77727;SHT30;68312;53.502;10.030;2023-05-19T04:19:13;7.75;81.58
77727;SHT30;68312;53.502;10.030;2023-05-19T04:21:38;7.81;81.50
77727;SHT30;68312;53.502;10.030;2023-05-19T04:24:04;7.90;81.10
77727;SHT30;68312;53.502;10.030;2023-05-19T04:26:30;7.97;80.78
77727;SHT30;68312;53.502;10.030;2023-05-19T04:28:56;8.04;80.84
77727;SHT30;68312;53.502;10.030;2023-05-19T04:31:21;8.08;80.23
77727;SHT30;68312;53.502;10.030;2023-05-19T04:33:47;8.16;79.96
77727;SHT30;68312;53.502;10.030;2023-05-19T04:36:12;8.24;80.29
77727;SHT30;68312;53.502;10.030;2023-05-19T04:38:38;8.28;80.27
77727;SHT30;68312;53.502;10.030;2023-05-19T04:41:07;8.38;79.37
77727;SHT30;68312;53.502;10.030;2023-05-19T04:43:33;8.42;78.93
77727;SHT30;68312;53.502;10.030;2023-05-19T04:45:58;8.49;79.48
77727;SHT30;68312;53.502;10.030;2023-05-19T04:48:24;8.50;79.36
77727;SHT30;68312;53.502;10.030;2023-05-19T04:50:49;8.57;79.21
77727;SHT30;68312;53.502;10.030;2023-05-19T04:53:15;8.67;78.49
77727;SHT30;68312;53.502;10.030;2023-05-19T04:55:40;8.72;77.78
77727;SHT30;68312;53.502;10.030;2023-05-19T04:58:06;8.80;78.19
77727;SHT30;68312;53.502;10.030;2023-05-19T05:00:31;8.87;77.50
77727;SHT30;68312;53.502;10.030;2023-05-19T05:02:57;8.93;77.85
77727;SHT30;68312;53.502;10.030;2023-05-19T05:05:23;9.01;77.75
77727;SHT30;68312;53.502;10.030;2023-05-19T05:07:48;9.11;77.44
77727;SHT30;68312;53.502;10.030;2023-05-19T05:10:14;9.17;76.78
77727;SHT30;68312;53.502;10.030;2023-05-19T05:12:40;9.24;77.07
77727;SHT30;68312;53.502;10.030;2023-05-19T05:15:07;9.28;77.01
77727;SHT30;68312;53.502;10.030;2023-05-19T05:17:34;9.36;76.58
77727;SHT30;68312;53.502;10.030;2023-05-19T05:20:01;9.35;75.57
77727;SHT30;68312;53.502;10.030;2023-05-19T05:22:27;9.36;75.73
77727;SHT30;68312;53.502;10.030;2023-05-19T05:24:53;9.39;75.67
77727;SHT30;68312;53.502;10.030;2023-05-19T05:27:18;9.43;75.65
77727;SHT30;68312;53.502;10.030;2023-05-19T05:29:44;9.43;75.91
77727;SHT30;68312;53.502;10.030;2023-05-19T05:32:09;9.51;75.52
77727;SHT30;68312;53.502;10.030;2023-05-19T05:34:35;9.61;74.74
77727;SHT30;68312;53.502;10.030;2023-05-19T05:37:00;9.72;74.89
77727;SHT30;68312;53.502;10.030;2023-05-19T05:39:26;9.83;74.58
77727;SHT30;68312;53.502;10.030;2023-05-19T05:41:51;9.93;74.12
77727;SHT30;68312;53.502;10.030;2023-05-19T05:44:17;9.99;73.27
77727;SHT30;68312;53.502;10.030;2023-05-19T05:46:43;10.07;73.62
77727;SHT30;68312;53.502;10.030;2023-05-19T05:49:09;10.14;73.21
77727;SHT30;68312;53.502;10.030;2023-05-19T05:51:35;10.31;73.01
77727;SHT30;68312;53.502;10.030;2023-05-19T05:54:01;10.47;72.10
77727;SHT30;68312;53.502;10.030;2023-05-19T05:56:31;10.61;71.27
77727;SHT30;68312;53.502;10.030;2023-05-19T05:58:56;10.67;70.70
77727;SHT30;68312;53.502;10.030;2023-05-19T06:01:22;10.78;70.18
77727;SHT30;68312;53.502;10.030;2023-05-19T06:03:47;10.83;70.01
77727;SHT30;68312;53.502;10.030;2023-05-19T06:06:13;10.95;70.59
77727;SHT30;68312;53.502;10.030;2023-05-19T06:08:38;10.99;69.75
77727;SHT30;68312;53.502;10.030;2023-05-19T06:11:04;11.05;70.22
77727;SHT30;68312;53.502;10.030;2023-05-19T06:13:29;11.08;68.75
77727;SHT30;68312;53.502;10.030;2023-05-19T06:15:55;11.15;68.74
77727;SHT30;68312;53.502;10.030;2023-05-19T06:18:20;11.22;69.03
77727;SHT30;68312;53.502;10.030;2023-05-19T06:20:46;11.29;69.80
77727;SHT30;68312;53.502;10.030;2023-05-19T06:23:11;11.44;68.15
77727;SHT30;68312;53.502;10.030;2023-05-19T06:25:36;11.53;68.11
77727;SHT30;68312;53.502;10.030;2023-05-19T06:28:02;11.54;67.32
77727;SHT30;68312;53.502;10.030;2023-05-19T06:30:27;11.64;67.90
77727;SHT30;68312;53.502;10.030;2023-05-19T06:32:53;11.82;67.82
77727;SHT30;68312;53.502;10.030;2023-05-19T06:35:18;11.91;66.71
77727;SHT30;68312;53.502;10.030;2023-05-19T06:37:44;11.99;66.05
77727;SHT30;68312;53.502;10.030;2023-05-19T06:40:11;12.04;66.74
77727;SHT30;68312;53.502;10.030;2023-05-19T06:42:36;12.08;66.03
77727;SHT30;68312;53.502;10.030;2023-05-19T06:45:02;12.16;66.59
77727;SHT30;68312;53.502;10.030;2023-05-19T06:47:27;12.33;65.92
77727;SHT30;68312;53.502;10.030;2023-05-19T06:49:53;12.55;65.03
77727;SHT30;68312;53.502;10.030;2023-05-19T06:52:19;12.72;66.25
77727;SHT30;68312;53.502;10.030;2023-05-19T06:54:45;12.70;64.17
77727;SHT30;68312;53.502;10.030;2023-05-19T06:57:10;12.63;64.48
77727;SHT30;68312;53.502;10.030;2023-05-19T06:59:36;12.72;64.29
77727;SHT30;68312;53.502;10.030;2023-05-19T07:02:02;12.79;62.94
77727;SHT30;68312;53.502;10.030;2023-05-19T07:04:27;12.77;63.18
77727;SHT30;68312;53.502;10.030;2023-05-19T07:06:53;13.01;62.87
77727;SHT30;68312;53.502;10.030;2023-05-19T07:09:18;13.10;62.22
77727;SHT30;68312;53.502;10.030;2023-05-19T07:11:44;13.18;62.38
77727;SHT30;68312;53.502;10.030;2023-05-19T07:14:09;13.26;61.57
77727;SHT30;68312;53.502;10.030;2023-05-19T07:16:35;13.14;61.86
77727;SHT30;68312;53.502;10.030;2023-05-19T07:19:00;13.19;64.34
77727;SHT30;68312;53.502;10.030;2023-05-19T07:21:26;13.18;61.62
77727;SHT30;68312;53.502;10.030;2023-05-19T07:23:51;13.28;62.07
77727;SHT30;68312;53.502;10.030;2023-05-19T07:26:17;13.38;62.23
77727;SHT30;68312;53.502;10.030;2023-05-19T07:28:42;13.59;60.81
77727;SHT30;68312;53.502;10.030;2023-05-19T07:31:08;13.84;60.43
77727;SHT30;68312;53.502;10.030;2023-05-19T07:33:34;14.00;58.87
77727;SHT30;68312;53.502;10.030;2023-05-19T07:35:59;14.17;58.04
77727;SHT30;68312;53.502;10.030;2023-05-19T07:38:25;14.73;59.14
77727;SHT30;68312;53.502;10.030;2023-05-19T07:40:50;15.37;56.93
77727;SHT30;68312;53.502;10.030;2023-05-19T07:43:17;15.89;53.60
77727;SHT30;68312;53.502;10.030;2023-05-19T07:45:42;16.19;53.71
77727;SHT30;68312;53.502;10.030;2023-05-19T07:48:08;16.42;50.94
77727;SHT30;68312;53.502;10.030;2023-05-19T07:50:33;16.37;52.79
77727;SHT30;68312;53.502;10.030;2023-05-19T07:52:59;16.49;51.34
77727;SHT30;68312;53.502;10.030;2023-05-19T07:55:24;16.49;51.22
77727;SHT30;68312;53.502;10.030;2023-05-19T07:57:50;16.73;52.66
77727;SHT30;68312;53.502;10.030;2023-05-19T08:00:16;17.07;51.50
77727;SHT30;68312;53.502;10.030;2023-05-19T08:02:42;17.18;49.25
77727;SHT30;68312;53.502;10.030;2023-05-19T08:05:08;16.87;51.40
77727;SHT30;68312;53.502;10.030;2023-05-19T08:07:34;16.84;52.39
77727;SHT30;68312;53.502;10.030;2023-05-19T08:10:00;17.25;49.35
77727;SHT30;68312;53.502;10.030;2023-05-19T08:12:25;17.76;48.12
77727;SHT30;68312;53.502;10.030;2023-05-19T08:14:52;17.97;46.56
77727;SHT30;68312;53.502;10.030;2023-05-19T08:17:17;17.83;46.68
77727;SHT30;68312;53.502;10.030;2023-05-19T08:19:44;18.04;47.31
77727;SHT30;68312;53.502;10.030;2023-05-19T08:22:09;18.38;46.02
77727;SHT30;68312;53.502;10.030;2023-05-19T08:24:35;19.12;44.53
77727;SHT30;68312;53.502;10.030;2023-05-19T08:27:00;19.65;43.73
77727;SHT30;68312;53.502;10.030;2023-05-19T08:29:27;20.78;40.80
77727;SHT30;68312;53.502;10.030;2023-05-19T08:31:52;21.57;42.13
77727;SHT30;68312;53.502;10.030;2023-05-19T08:34:18;22.18;39.63
77727;SHT30;68312;53.502;10.030;2023-05-19T08:36:44;22.98;36.27
77727;SHT30;68312;53.502;10.030;2023-05-19T08:39:10;22.13;37.61
77727;SHT30;68312;53.502;10.030;2023-05-19T08:41:36;22.45;37.53
77727;SHT30;68312;53.502;10.030;2023-05-19T08:44:03;22.81;39.14
77727;SHT30;68312;53.502;10.030;2023-05-19T08:46:29;23.22;37.01
77727;SHT30;68312;53.502;10.030;2023-05-19T08:49:03;23.44;35.56
77727;SHT30;68312;53.502;10.030;2023-05-19T08:51:50;23.55;34.32
77727;SHT30;68312;53.502;10.030;2023-05-19T08:54:40;23.47;34.72
77727;SHT30;68312;53.502;10.030;2023-05-19T08:57:11;23.16;34.60
77727;SHT30;68312;53.502;10.030;2023-05-19T08:59:39;23.30;36.52
77727;SHT30;68312;53.502;10.030;2023-05-19T09:02:10;23.65;35.55
77727;SHT30;68312;53.502;10.030;2023-05-19T09:04:39;23.98;33.07
77727;SHT30;68312;53.502;10.030;2023-05-19T09:07:05;23.60;33.38
77727;SHT30;68312;53.502;10.030;2023-05-19T09:09:31;23.67;35.78
77727;SHT30;68312;53.502;10.030;2023-05-19T09:11:57;23.39;35.00
77727;SHT30;68312;53.502;10.030;2023-05-19T09:14:22;23.68;35.64
77727;SHT30;68312;53.502;10.030;2023-05-19T09:16:48;23.92;33.46
77727;SHT30;68312;53.502;10.030;2023-05-19T09:19:14;23.53;33.73
77727;SHT30;68312;53.502;10.030;2023-05-19T09:21:39;23.22;34.16
77727;SHT30;68312;53.502;10.030;2023-05-19T09:24:08;23.43;35.08
77727;SHT30;68312;53.502;10.030;2023-05-19T09:26:41;23.70;33.13
77727;SHT30;68312;53.502;10.030;2023-05-19T09:29:14;23.33;34.81
77727;SHT30;68312;53.502;10.030;2023-05-19T09:31:55;23.02;33.81
77727;SHT30;68312;53.502;10.030;2023-05-19T09:34:21;22.89;35.16
77727;SHT30;68312;53.502;10.030;2023-05-19T09:36:47;23.72;34.60
77727;SHT30;68312;53.502;10.030;2023-05-19T09:39:17;24.20;33.88
77727;SHT30;68312;53.502;10.030;2023-05-19T09:41:45;24.57;31.67
77727;SHT30;68312;53.502;10.030;2023-05-19T09:44:34;24.11;31.73
77727;SHT30;68312;53.502;10.030;2023-05-19T09:46:59;23.58;32.36
77727;SHT30;68312;53.502;10.030;2023-05-19T09:49:27;23.37;33.16
77727;SHT30;68312;53.502;10.030;2023-05-19T09:51:54;22.54;33.52
77727;SHT30;68312;53.502;10.030;2023-05-19T09:54:22;22.07;35.09
77727;SHT30;68312;53.502;10.030;2023-05-19T09:57:00;21.69;33.68
77727;SHT30;68312;53.502;10.030;2023-05-19T09:59:28;21.52;35.31
77727;SHT30;68312;53.502;10.030;2023-05-19T10:01:56;21.82;34.64
77727;SHT30;68312;53.502;10.030;2023-05-19T10:04:25;21.76;34.21
77727;SHT30;68312;53.502;10.030;2023-05-19T10:06:53;22.17;33.57
77727;SHT30;68312;53.502;10.030;2023-05-19T10:09:26;22.66;33.76
77727;SHT30;68312;53.502;10.030;2023-05-19T10:11:57;23.34;34.52
77727;SHT30;68312;53.502;10.030;2023-05-19T10:14:25;23.47;32.55
77727;SHT30;68312;53.502;10.030;2023-05-19T10:16:54;23.91;34.23
77727;SHT30;68312;53.502;10.030;2023-05-19T10:19:26;23.95;32.13
77727;SHT30;68312;53.502;10.030;2023-05-19T10:21:53;24.09;31.44
77727;SHT30;68312;53.502;10.030;2023-05-19T10:24:19;24.05;32.94
77727;SHT30;68312;53.502;10.030;2023-05-19T10:27:02;24.64;31.75
77727;SHT30;68312;53.502;10.030;2023-05-19T10:29:36;24.56;30.47
77727;SHT30;68312;53.502;10.030;2023-05-19T10:32:13;24.46;31.18
77727;SHT30;68312;53.502;10.030;2023-05-19T10:35:19;24.30;31.63
77727;SHT30;68312;53.502;10.030;2023-05-19T10:44:56;23.86;33.70
77727;SHT30;68312;53.502;10.030;2023-05-19T10:47:53;24.30;33.30
77727;SHT30;68312;53.502;10.030;2023-05-19T10:50:19;24.49;30.60
77727;SHT30;68312;53.502;10.030;2023-05-19T10:52:52;24.12;32.33
77727;SHT30;68312;53.502;10.030;2023-05-19T10:55:44;24.22;31.95
77727;SHT30;68312;53.502;10.030;2023-05-19T10:58:11;24.30;30.54
77727;SHT30;68312;53.502;10.030;2023-05-19T11:00:38;23.77;32.18
77727;SHT30;68312;53.502;10.030;2023-05-19T11:03:15;24.39;32.65
77727;SHT30;68312;53.502;10.030;2023-05-19T11:05:41;24.63;30.75
77727;SHT30;68312;53.502;10.030;2023-05-19T11:08:06;25.04;29.64
77727;SHT30;68312;53.502;10.030;2023-05-19T11:10:33;24.53;32.80
77727;SHT30;68312;53.502;10.030;2023-05-19T11:12:59;24.73;30.92
77727;SHT30;68312;53.502;10.030;2023-05-19T11:15:26;24.76;31.93
77727;SHT30;68312;53.502;10.030;2023-05-19T11:17:53;24.84;31.58
77727;SHT30;68312;53.502;10.030;2023-05-19T11:20:27;24.28;30.96
77727;SHT30;68312;53.502;10.030;2023-05-19T11:23:15;23.44;31.42
77727;SHT30;68312;53.502;10.030;2023-05-19T11:25:51;24.56;35.10
77727;SHT30;68312;53.502;10.030;2023-05-19T11:28:21;24.95;30.18
77727;SHT30;68312;53.502;10.030;2023-05-19T11:30:48;24.39;30.84
77727;SHT30;68312;53.502;10.030;2023-05-19T11:33:13;24.49;30.60
77727;SHT30;68312;53.502;10.030;2023-05-19T11:35:39;24.60;30.00
77727;SHT30;68312;53.502;10.030;2023-05-19T11:38:06;24.48;30.34
77727;SHT30;68312;53.502;10.030;2023-05-19T11:40:32;23.65;32.72
77727;SHT30;68312;53.502;10.030;2023-05-19T11:42:58;23.06;33.47
77727;SHT30;68312;53.502;10.030;2023-05-19T11:45:24;22.95;34.54
77727;SHT30;68312;53.502;10.030;2023-05-19T11:47:50;22.13;35.26
77727;SHT30;68312;53.502;10.030;2023-05-19T11:50:16;21.82;37.07
77727;SHT30;68312;53.502;10.030;2023-05-19T11:52:46;21.66;35.96
77727;SHT30;68312;53.502;10.030;2023-05-19T11:55:16;21.27;34.28
77727;SHT30;68312;53.502;10.030;2023-05-19T11:58:03;22.22;35.47
77727;SHT30;68312;53.502;10.030;2023-05-19T12:00:34;22.65;33.95
77727;SHT30;68312;53.502;10.030;2023-05-19T12:03:00;22.79;34.30
77727;SHT30;68312;53.502;10.030;2023-05-19T12:05:26;23.64;33.23
77727;SHT30;68312;53.502;10.030;2023-05-19T12:07:52;24.29;31.38
77727;SHT30;68312;53.502;10.030;2023-05-19T12:10:29;25.12;34.21
77727;SHT30;68312;53.502;10.030;2023-05-19T12:12:56;25.25;31.25
77727;SHT30;68312;53.502;10.030;2023-05-19T12:15:23;25.32;30.18
77727;SHT30;68312;53.502;10.030;2023-05-19T12:17:57;24.86;32.04
77727;SHT30;68312;53.502;10.030;2023-05-19T12:20:26;23.40;31.65
77727;SHT30;68312;53.502;10.030;2023-05-19T12:22:56;21.97;35.00
77727;SHT30;68312;53.502;10.030;2023-05-19T12:25:23;21.04;35.84
77727;SHT30;68312;53.502;10.030;2023-05-19T12:27:49;20.54;37.54
77727;SHT30;68312;53.502;10.030;2023-05-19T12:30:15;20.76;38.12
77727;SHT30;68312;53.502;10.030;2023-05-19T12:32:41;21.77;34.11
77727;SHT30;68312;53.502;10.030;2023-05-19T12:35:08;22.03;36.25
77727;SHT30;68312;53.502;10.030;2023-05-19T12:37:39;23.03;33.98
77727;SHT30;68312;53.502;10.030;2023-05-19T12:40:06;23.88;31.30
77727;SHT30;68312;53.502;10.030;2023-05-19T12:42:33;24.05;32.14
77727;SHT30;68312;53.502;10.030;2023-05-19T12:45:03;23.40;32.94
77727;SHT30;68312;53.502;10.030;2023-05-19T12:47:31;22.48;33.42
77727;SHT30;68312;53.502;10.030;2023-05-19T12:52:24;22.15;35.75
77727;SHT30;68312;53.502;10.030;2023-05-19T12:55:04;21.50;35.74
77727;SHT30;68312;53.502;10.030;2023-05-19T12:57:36;21.29;36.12
77727;SHT30;68312;53.502;10.030;2023-05-19T13:00:22;21.11;37.44
77727;SHT30;68312;53.502;10.030;2023-05-19T13:03:05;22.06;34.67
77727;SHT30;68312;53.502;10.030;2023-05-19T13:05:37;22.07;35.60
77727;SHT30;68312;53.502;10.030;2023-05-19T13:10:39;21.85;35.04
77727;SHT30;68312;53.502;10.030;2023-05-19T13:13:07;22.15;34.97
77727;SHT30;68312;53.502;10.030;2023-05-19T13:15:37;21.80;35.27
77727;SHT30;68312;53.502;10.030;2023-05-19T13:18:08;21.14;37.72
77727;SHT30;68312;53.502;10.030;2023-05-19T13:20:37;20.88;38.27
77727;SHT30;68312;53.502;10.030;2023-05-19T13:23:04;21.57;36.61
77727;SHT30;68312;53.502;10.030;2023-05-19T13:25:33;22.59;35.23
77727;SHT30;68312;53.502;10.030;2023-05-19T13:28:00;23.39;35.46
77727;SHT30;68312;53.502;10.030;2023-05-19T13:30:26;22.66;34.89
77727;SHT30;68312;53.502;10.030;2023-05-19T13:32:52;21.57;37.21
77727;SHT30;68312;53.502;10.030;2023-05-19T13:35:18;21.05;39.96
77727;SHT30;68312;53.502;10.030;2023-05-19T13:37:43;20.59;39.41
77727;SHT30;68312;53.502;10.030;2023-05-19T13:40:09;21.01;38.12
77727;SHT30;68312;53.502;10.030;2023-05-19T13:42:36;21.82;37.36
77727;SHT30;68312;53.502;10.030;2023-05-19T13:45:02;22.33;34.81
77727;SHT30;68312;53.502;10.030;2023-05-19T13:47:28;22.69;35.71
77727;SHT30;68312;53.502;10.030;2023-05-19T13:49:54;23.13;34.53
77727;SHT30;68312;53.502;10.030;2023-05-19T13:52:20;23.86;34.06
77727;SHT30;68312;53.502;10.030;2023-05-19T13:54:47;24.29;32.92
77727;SHT30;68312;53.502;10.030;2023-05-19T13:57:16;24.83;32.23
77727;SHT30;68312;53.502;10.030;2023-05-19T13:59:42;25.12;30.56
77727;SHT30;68312;53.502;10.030;2023-05-19T14:02:08;25.41;29.67
77727;SHT30;68312;53.502;10.030;2023-05-19T14:04:38;25.37;30.60
77727;SHT30;68312;53.502;10.030;2023-05-19T14:07:06;24.09;33.78
77727;SHT30;68312;53.502;10.030;2023-05-19T14:09:32;22.92;35.76
77727;SHT30;68312;53.502;10.030;2023-05-19T14:11:58;21.87;37.57
77727;SHT30;68312;53.502;10.030;2023-05-19T14:14:24;20.87;40.39
77727;SHT30;68312;53.502;10.030;2023-05-19T14:16:49;20.44;40.60
77727;SHT30;68312;53.502;10.030;2023-05-19T14:19:15;20.28;40.57
77727;SHT30;68312;53.502;10.030;2023-05-19T14:21:41;19.92;40.62
77727;SHT30;68312;53.502;10.030;2023-05-19T14:24:06;19.79;43.25
77727;SHT30;68312;53.502;10.030;2023-05-19T14:26:31;19.79;40.42
77727;SHT30;68312;53.502;10.030;2023-05-19T14:28:57;19.92;40.75
77727;SHT30;68312;53.502;10.030;2023-05-19T14:31:23;21.57;38.07
77727;SHT30;68312;53.502;10.030;2023-05-19T14:33:48;22.85;36.39
77727;SHT30;68312;53.502;10.030;2023-05-19T14:36:14;23.53;35.21
77727;SHT30;68312;53.502;10.030;2023-05-19T14:38:39;24.19;33.16
77727;SHT30;68312;53.502;10.030;2023-05-19T14:41:06;24.02;33.36
77727;SHT30;68312;53.502;10.030;2023-05-19T14:43:31;24.73;33.09
77727;SHT30;68312;53.502;10.030;2023-05-19T14:45:57;24.52;33.14
77727;SHT30;68312;53.502;10.030;2023-05-19T14:48:22;24.63;33.34
77727;SHT30;68312;53.502;10.030;2023-05-19T14:50:48;23.39;35.20
77727;SHT30;68312;53.502;10.030;2023-05-19T14:53:14;22.03;38.80
77727;SHT30;68312;53.502;10.030;2023-05-19T14:55:40;21.31;39.50
77727;SHT30;68312;53.502;10.030;2023-05-19T14:58:05;20.90;40.05
77727;SHT30;68312;53.502;10.030;2023-05-19T15:00:31;20.57;40.89
77727;SHT30;68312;53.502;10.030;2023-05-19T15:02:56;20.01;42.21
77727;SHT30;68312;53.502;10.030;2023-05-19T15:05:22;19.83;41.96
77727;SHT30;68312;53.502;10.030;2023-05-19T15:07:47;19.68;43.40
77727;SHT30;68312;53.502;10.030;2023-05-19T15:10:13;19.64;43.55
77727;SHT30;68312;53.502;10.030;2023-05-19T15:12:39;19.86;43.42
77727;SHT30;68312;53.502;10.030;2023-05-19T15:15:05;19.75;43.05
77727;SHT30;68312;53.502;10.030;2023-05-19T15:17:31;20.09;42.88
77727;SHT30;68312;53.502;10.030;2023-05-19T15:19:56;20.54;42.04
77727;SHT30;68312;53.502;10.030;2023-05-19T15:22:22;20.71;42.21
77727;SHT30;68312;53.502;10.030;2023-05-19T15:24:47;20.84;41.92
77727;SHT30;68312;53.502;10.030;2023-05-19T15:27:13;21.62;39.22
77727;SHT30;68312;53.502;10.030;2023-05-19T15:29:38;21.93;38.71
77727;SHT30;68312;53.502;10.030;2023-05-19T15:32:04;22.13;37.79
77727;SHT30;68312;53.502;10.030;2023-05-19T15:34:30;21.92;39.99
77727;SHT30;68312;53.502;10.030;2023-05-19T15:36:55;22.04;39.46
77727;SHT30;68312;53.502;10.030;2023-05-19T15:39:21;22.22;37.30
77727;SHT30;68312;53.502;10.030;2023-05-19T15:41:48;22.03;38.19
77727;SHT30;68312;53.502;10.030;2023-05-19T15:44:14;21.57;38.34
77727;SHT30;68312;53.502;10.030;2023-05-19T15:46:40;21.27;39.76
77727;SHT30;68312;53.502;10.030;2023-05-19T15:49:05;21.05;39.75